Terminal Aerodrome Forecast
Issued by NWS Greer, SC

Home | Current Version | Previous Version | Text Only | Print | Product List | Glossary On
Versions: 1 2 3 4 5 6 7 8 9 10 11 12 13 14 15 16 17 18 19 20 21 22 23 24 25 26 27 28 29 30 31 32 33 34 35 36 37 38 39 40 41 42
000
FTUS42 KGSP 302058 AAD
TAFCLT
TAF AMD
KCLT 302058Z 3021/3118 28010G17KT P6SM FEW070
     FM310000 33005KT P6SM FEW200
     FM310900 19003KT P6SM FEW250
     FM311500 21007KT P6SM FEW120
     FM311700 21008G16KT P6SM FEW200=

USA.gov is the U.S. government's official web portal to all federal, state and local government web resources and services.